Wednesday, December 17, 2014, 10:56 PM EST
Back to Local

KMPO, Mt Pocono Pocono Mountains

Location: Pocono Summit, PA, United States Lat: 41.133
Local Time: 10:56 PM EST ( 3:56 GMT) Lon: -75.383
Time Zone: US/Eastern Elev: 1915 ft

Show me the last for .
Show Decoded

2014-12-17 21:53 METAR KMPO 180253Z AUTO 29012KT 10SM BKN027 OVC043 00/M05 A2985 RMK AO2 SLP125
                 T00001050 53002 =
2014-12-17 20:53 METAR KMPO 180153Z AUTO 29015G22KT 10SM OVC033 01/M04 A2985 RMK AO2 SLP124
                 T00061044 =
2014-12-17 19:53 METAR KMPO 180053Z AUTO 29011KT 10SM SCT043 01/M03 A2985 RMK AO2 SLP122
                 T00061033 =
2014-12-17 18:53 METAR KMPO 172353Z AUTO 29013G20KT 10SM SCT036 BKN045 01/M03 A2985 RMK AO2
                 SLP123 60001 T00111028 10044 20011 53011 =
2014-12-17 17:53 METAR KMPO 172253Z AUTO 29017G24KT 10SM SCT043 01/M02 A2983 RMK AO2 PK WND
                 28029/2237 RAE03UPB03E15SNB15E16 SLP118 P0000 T00111017 =
2014-12-17 17:28 METAR KMPO 172228Z AUTO 29015G25KT 10SM FEW013 SCT029 BKN037 02/M01 A2983 RMK
                 AO2 RAE03UPB03E15SNB15E16 P0000 T00171011 =
2014-12-17 16:53 METAR KMPO 172153Z AUTO 29014KT 10SM -RA BKN018 02/M01 A2982 RMK AO2 PK WND
                 28029/2123 RAE25B53 SLP112 P0000 T00221006 =
2014-12-17 16:33 METAR KMPO 172133Z AUTO 29017G23KT 10SM SCT014 SCT018 02/00 A2982 RMK AO2 PK WND
                 28029/2123 RAE25 P0000 T00220000 =
2014-12-17 15:53 METAR KMPO 172053Z AUTO 29015KT 8SM -RA FEW011 SCT016 OVC023 03/01 A2981 RMK AO2
                 RAB09 SLP110 P0001 60001 T00280006 51004 =
2014-12-17 15:49 METAR KMPO 172049Z AUTO 29015G23KT 6SM -RA BR FEW011 SCT015 OVC023 03/01 A2981
                 RMK AO2 RAB09 P0001 =
2014-12-17 15:15 METAR KMPO 172015Z AUTO 29010KT 7SM -RA BKN012 BKN017 OVC026 03/01 A2982 RMK AO2
                 RAB09 P0000 T00330011 =
2014-12-17 15:01 METAR KMPO 172001Z AUTO 29008KT 10SM FEW013 BKN018 OVC026 03/01 A2982 RMK AO2
                 T00330011 =
2014-12-17 14:53 METAR KMPO 171953Z AUTO 29011G20KT 10SM BKN013 BKN018 OVC024 03/01 A2982 RMK AO2
                 RAB00E53 SLP111 P0000 T00330011 =
2014-12-17 13:53 METAR KMPO 171853Z AUTO 29009KT 10SM BKN010 OVC015 03/02 A2980 RMK AO2 RAB07E51
                 CIG 007V012 SLP105 P0000 T00330017 =
2014-12-17 13:04 METAR KMPO 171804Z AUTO 29017G22KT 10SM BKN013 BKN023 OVC032 04/01 A2979 RMK AO2
                 T00390011 =
2014-12-17 12:53 METAR KMPO 171753Z AUTO 28013G24KT 10SM BKN015 BKN021 OVC029 04/01 A2979 RMK AO2
                 PK WND 28026/1735 SLP101 T00440011 10050 20028 58013 =
2014-12-17 12:24 METAR KMPO 171724Z AUTO 29011KT 10SM OVC015 05/01 A2980 RMK AO2 T00500011 =
2014-12-17 11:53 METAR KMPO 171653Z AUTO 28009KT 10SM OVC013 04/02 A2981 RMK AO2 SLP107 T00440017
                 =
2014-12-17 10:17 METAR KMPO 171517Z AUTO 29014G22KT 10SM OVC010 04/02 A2983 RMK AO2 CIG 008V013
                 T00440022 =
2014-12-17 09:53 METAR KMPO 171453Z AUTO 29011G18KT 10SM OVC008 04/03 A2984 RMK AO2 CIG 007V013
                 SLP117 T00440028 51011 =
2014-12-17 09:50 METAR KMPO 171450Z AUTO 29012KT 10SM OVC008 04/03 A2984 RMK AO2 CIG 007V013 =
2014-12-17 09:32 METAR KMPO 171432Z AUTO 30010KT 10SM BKN010 OVC016 04/02 A2983 RMK AO2 CIG
                 006V013 T00390022 =
2014-12-17 09:02 METAR KMPO 171402Z AUTO 28013KT 10SM BKN017 OVC110 04/02 A2983 RMK AO2 T00390022
                 =
2014-12-17 08:53 METAR KMPO 171353Z AUTO 29014G20KT 10SM SCT015 OVC110 04/02 A2982 RMK AO2 SLP112
                 T00390022 =
2014-12-17 07:53 METAR KMPO 171253Z AUTO 30012KT 10SM FEW015 OVC110 03/02 A2980 RMK AO2 SLP106
                 T00330017 =
2014-12-17 07:46 METAR KMPO 171246Z AUTO 30014KT 10SM FEW005 SCT015 OVC110 03/02 A2981 RMK AO2
                 T00330017 =
2014-12-17 07:31 METAR KMPO 171231Z AUTO 29012KT 10SM SCT007 BKN015 03/02 A2981 RMK AO2 T00330017
                 =
2014-12-17 07:18 METAR KMPO 171218Z AUTO 29011KT 10SM SCT006 BKN011 BKN016 03/02 A2980 RMK AO2
                 T00280017 =
2014-12-17 07:05 METAR KMPO 171205Z AUTO 29009KT 10SM BKN008 OVC016 03/02 A2981 RMK AO2 CIG
                 006V010 T00280017 =
2014-12-17 06:53 METAR KMPO 171153Z AUTO 29008KT 10SM BKN016 BKN100 03/02 A2982 RMK AO2 SLP110
                 60001 70010 T00280017 10039 20028 53009 =
2014-12-17 06:44 METAR KMPO 171144Z AUTO 29008KT 10SM BKN016 03/02 A2981 RMK AO2 T00280017 =
2014-12-17 06:27 METAR KMPO 171127Z AUTO 30009KT 10SM FEW005 SCT012 03/02 A2981 RMK AO2 T00280022
                 =
2014-12-17 06:19 METAR KMPO 171119Z AUTO 30009KT 10SM SCT007 BKN012 03/02 A2980 RMK AO2 T00280022
                 =
2014-12-17 06:09 METAR KMPO 171109Z AUTO 29010G18KT 10SM BKN006 03/02 A2980 RMK AO2 CIG 004V010
                 T00330022 =
2014-12-17 05:53 METAR KMPO 171053Z AUTO 29014G18KT 10SM OVC007 03/02 A2980 RMK AO2 CIG 004V009
                 SLP103 T00330022 =
2014-12-17 05:23 METAR KMPO 171023Z AUTO 31010G17KT 10SM OVC005 03/02 A2979 RMK AO2 T00330022 =
2014-12-17 04:53 METAR KMPO 170953Z AUTO 30011G17KT 10SM OVC004 04/03 A2979 RMK AO2 SLP101
                 T00390028 =
2014-12-17 03:53 METAR KMPO 170853Z AUTO 30010KT 3SM BR OVC002 04/03 A2979 RMK AO2 SLP101 60001
                 T00390028 58001 =
2014-12-17 03:43 METAR KMPO 170843Z AUTO 30011KT 2SM BR OVC002 03/03 A2979 RMK AO2 T00330028 =
2014-12-17 03:13 METAR KMPO 170813Z AUTO 29008KT 1/2SM FG VV002 03/03 A2979 RMK AO2 T00330028 =
2014-12-17 02:53 METAR KMPO 170753Z AUTO 30008KT 1/4SM FG VV002 03/03 A2979 RMK AO2 SLP103
                 T00330028 =
2014-12-17 02:25 METAR KMPO 170725Z AUTO 29006KT 1/4SM FG VV002 03/03 A2980 RMK AO2 T00330028 =
2014-12-17 02:08 METAR KMPO 170708Z AUTO 28007KT 1/2SM FG VV002 03/03 A2979 RMK AO2 T00330028 =
2014-12-17 01:53 METAR KMPO 170653Z AUTO 28008KT 1SM BR VV003 03/03 A2979 RMK AO2 RAE27 SLP103
                 P0001 T00330028 =
2014-12-17 01:17 METAR KMPO 170617Z AUTO 29006KT 1/2SM -RA FG VV002 03/03 A2978 RMK AO2 P0001
                 T00330028 =
2014-12-17 00:53 METAR KMPO 170553Z AUTO 30005KT 1/4SM -RA FG VV001 03/02 A2979 RMK AO2 RAB44
                 SLP103 P0000 60002 T00330022 10033 20017 58011 =

Support USWX by starting your Amazon purchase here.